sensor_id;sensor_type;location;lat;lon;timestamp;temperature;humidity
49777;DHT22;35673;51.482;7.436;2023-03-20T00:00:43;11.20;99.90
49777;DHT22;35673;51.482;7.436;2023-03-20T00:03:12;11.10;99.90
49777;DHT22;35673;51.482;7.436;2023-03-20T00:05:38;11.00;99.90
49777;DHT22;35673;51.482;7.436;2023-03-20T00:08:04;11.00;99.90
49777;DHT22;35673;51.482;7.436;2023-03-20T00:10:39;11.10;99.90
49777;DHT22;35673;51.482;7.436;2023-03-20T00:13:06;11.00;99.90
49777;DHT22;35673;51.482;7.436;2023-03-20T00:15:34;11.00;99.90
49777;DHT22;35673;51.482;7.436;2023-03-20T00:18:00;10.90;99.90
49777;DHT22;35673;51.482;7.436;2023-03-20T00:20:26;11.00;99.90
49777;DHT22;35673;51.482;7.436;2023-03-20T00:22:51;10.90;99.90
49777;DHT22;35673;51.482;7.436;2023-03-20T00:25:18;10.90;99.90
49777;DHT22;35673;51.482;7.436;2023-03-20T00:27:45;10.90;99.90
49777;DHT22;35673;51.482;7.436;2023-03-20T00:32:39;10.70;99.90
49777;DHT22;35673;51.482;7.436;2023-03-20T00:35:13;10.70;99.90
49777;DHT22;35673;51.482;7.436;2023-03-20T00:37:41;10.70;99.90
49777;DHT22;35673;51.482;7.436;2023-03-20T00:40:06;10.60;99.90
49777;DHT22;35673;51.482;7.436;2023-03-20T00:42:32;10.70;99.90
49777;DHT22;35673;51.482;7.436;2023-03-20T00:44:57;10.60;99.90
49777;DHT22;35673;51.482;7.436;2023-03-20T00:47:23;10.60;99.90
49777;DHT22;35673;51.482;7.436;2023-03-20T00:49:50;10.60;99.90
49777;DHT22;35673;51.482;7.436;2023-03-20T00:52:17;10.60;99.90
49777;DHT22;35673;51.482;7.436;2023-03-20T00:54:42;10.60;99.90
49777;DHT22;35673;51.482;7.436;2023-03-20T00:57:11;10.50;99.90
49777;DHT22;35673;51.482;7.436;2023-03-20T00:59:44;10.30;99.90
49777;DHT22;35673;51.482;7.436;2023-03-20T01:02:13;10.30;99.90
49777;DHT22;35673;51.482;7.436;2023-03-20T01:04:40;10.30;99.90
49777;DHT22;35673;51.482;7.436;2023-03-20T01:07:08;10.30;99.90
49777;DHT22;35673;51.482;7.436;2023-03-20T01:09:35;10.20;99.90
49777;DHT22;35673;51.482;7.436;2023-03-20T01:12:02;10.10;99.90
49777;DHT22;35673;51.482;7.436;2023-03-20T01:14:27;10.00;99.90
49777;DHT22;35673;51.482;7.436;2023-03-20T01:16:53;10.00;99.90
49777;DHT22;35673;51.482;7.436;2023-03-20T01:19:18;10.00;99.90
49777;DHT22;35673;51.482;7.436;2023-03-20T01:21:44;10.00;99.90
49777;DHT22;35673;51.482;7.436;2023-03-20T01:24:09;10.00;99.90
49777;DHT22;35673;51.482;7.436;2023-03-20T01:26:35;10.00;99.90
49777;DHT22;35673;51.482;7.436;2023-03-20T01:29:02;10.00;99.90
49777;DHT22;35673;51.482;7.436;2023-03-20T01:31:28;10.00;99.90
49777;DHT22;35673;51.482;7.436;2023-03-20T01:33:53;10.20;99.90
49777;DHT22;35673;51.482;7.436;2023-03-20T01:36:20;10.20;99.90
49777;DHT22;35673;51.482;7.436;2023-03-20T01:38:46;10.20;99.90
49777;DHT22;35673;51.482;7.436;2023-03-20T01:41:15;10.10;99.90
49777;DHT22;35673;51.482;7.436;2023-03-20T01:43:41;10.10;99.90
49777;DHT22;35673;51.482;7.436;2023-03-20T01:51:17;10.10;99.90
49777;DHT22;35673;51.482;7.436;2023-03-20T01:53:46;10.10;99.90
49777;DHT22;35673;51.482;7.436;2023-03-20T01:56:13;10.00;99.90
49777;DHT22;35673;51.482;7.436;2023-03-20T01:58:40;10.00;99.90
49777;DHT22;35673;51.482;7.436;2023-03-20T02:01:08;10.10;99.90
49777;DHT22;35673;51.482;7.436;2023-03-20T02:03:35;10.00;99.90
49777;DHT22;35673;51.482;7.436;2023-03-20T02:06:02;10.00;99.90
49777;DHT22;35673;51.482;7.436;2023-03-20T02:08:29;10.00;99.90
49777;DHT22;35673;51.482;7.436;2023-03-20T02:10:55;10.00;99.90
49777;DHT22;35673;51.482;7.436;2023-03-20T02:13:22;9.90;99.90
49777;DHT22;35673;51.482;7.436;2023-03-20T02:16:21;9.80;99.90
49777;DHT22;35673;51.482;7.436;2023-03-20T02:18:41;9.80;99.90
49777;DHT22;35673;51.482;7.436;2023-03-20T02:26:19;9.60;99.90
49777;DHT22;35673;51.482;7.436;2023-03-20T02:29:08;9.50;99.90
49777;DHT22;35673;51.482;7.436;2023-03-20T02:31:41;9.50;99.90
49777;DHT22;35673;51.482;7.436;2023-03-20T02:39:41;9.50;99.90
49777;DHT22;35673;51.482;7.436;2023-03-20T02:42:15;9.50;99.90
49777;DHT22;35673;51.482;7.436;2023-03-20T02:47:20;9.60;99.90
49777;DHT22;35673;51.482;7.436;2023-03-20T02:57:46;9.50;99.90
49777;DHT22;35673;51.482;7.436;2023-03-20T03:00:31;9.40;99.90
49777;DHT22;35673;51.482;7.436;2023-03-20T03:05:47;9.30;99.90
49777;DHT22;35673;51.482;7.436;2023-03-20T03:08:13;9.30;99.90
49777;DHT22;35673;51.482;7.436;2023-03-20T03:10:42;9.40;99.90
49777;DHT22;35673;51.482;7.436;2023-03-20T03:13:11;9.40;99.90
49777;DHT22;35673;51.482;7.436;2023-03-20T03:15:38;9.40;99.90
49777;DHT22;35673;51.482;7.436;2023-03-20T03:18:05;9.40;99.90
49777;DHT22;35673;51.482;7.436;2023-03-20T03:20:35;9.30;99.90
49777;DHT22;35673;51.482;7.436;2023-03-20T03:23:01;9.40;99.90
49777;DHT22;35673;51.482;7.436;2023-03-20T03:25:28;9.20;99.90
49777;DHT22;35673;51.482;7.436;2023-03-20T03:28:00;9.30;99.90
49777;DHT22;35673;51.482;7.436;2023-03-20T03:30:27;9.20;99.90
49777;DHT22;35673;51.482;7.436;2023-03-20T03:33:01;9.10;99.90
49777;DHT22;35673;51.482;7.436;2023-03-20T03:35:31;9.30;99.90
49777;DHT22;35673;51.482;7.436;2023-03-20T03:37:57;9.20;99.90
49777;DHT22;35673;51.482;7.436;2023-03-20T03:40:44;9.20;99.90
49777;DHT22;35673;51.482;7.436;2023-03-20T03:43:17;9.10;99.90
49777;DHT22;35673;51.482;7.436;2023-03-20T03:45:51;9.10;99.90
49777;DHT22;35673;51.482;7.436;2023-03-20T03:48:23;9.10;99.90
49777;DHT22;35673;51.482;7.436;2023-03-20T03:50:55;9.10;99.90
49777;DHT22;35673;51.482;7.436;2023-03-20T03:53:30;9.10;99.90
49777;DHT22;35673;51.482;7.436;2023-03-20T03:56:00;9.10;99.90
49777;DHT22;35673;51.482;7.436;2023-03-20T03:58:27;9.10;99.90
49777;DHT22;35673;51.482;7.436;2023-03-20T04:00:54;9.00;99.70
49777;DHT22;35673;51.482;7.436;2023-03-20T04:03:23;9.10;99.90
49777;DHT22;35673;51.482;7.436;2023-03-20T04:05:49;9.00;99.90
49777;DHT22;35673;51.482;7.436;2023-03-20T04:08:15;9.00;99.90
49777;DHT22;35673;51.482;7.436;2023-03-20T04:10:41;9.10;99.90
49777;DHT22;35673;51.482;7.436;2023-03-20T04:13:06;9.00;99.90
49777;DHT22;35673;51.482;7.436;2023-03-20T04:15:31;9.00;99.90
49777;DHT22;35673;51.482;7.436;2023-03-20T04:17:57;9.00;99.90
49777;DHT22;35673;51.482;7.436;2023-03-20T04:20:22;9.00;99.90
49777;DHT22;35673;51.482;7.436;2023-03-20T04:22:48;9.00;99.90
49777;DHT22;35673;51.482;7.436;2023-03-20T04:25:23;8.90;99.90
49777;DHT22;35673;51.482;7.436;2023-03-20T04:27:49;8.90;99.90
49777;DHT22;35673;51.482;7.436;2023-03-20T04:30:14;8.90;99.90
49777;DHT22;35673;51.482;7.436;2023-03-20T04:32:40;8.70;99.90
49777;DHT22;35673;51.482;7.436;2023-03-20T04:35:06;8.70;99.90
49777;DHT22;35673;51.482;7.436;2023-03-20T04:37:31;8.70;99.90
49777;DHT22;35673;51.482;7.436;2023-03-20T04:39:57;8.70;99.90
49777;DHT22;35673;51.482;7.436;2023-03-20T04:42:22;8.70;99.90
49777;DHT22;35673;51.482;7.436;2023-03-20T04:44:47;8.70;99.90
49777;DHT22;35673;51.482;7.436;2023-03-20T04:47:13;8.70;99.90
49777;DHT22;35673;51.482;7.436;2023-03-20T04:49:38;8.60;99.90
49777;DHT22;35673;51.482;7.436;2023-03-20T04:52:04;8.70;99.90
49777;DHT22;35673;51.482;7.436;2023-03-20T04:54:30;8.70;99.90
49777;DHT22;35673;51.482;7.436;2023-03-20T04:56:55;8.60;99.90
49777;DHT22;35673;51.482;7.436;2023-03-20T04:59:21;8.70;99.90
49777;DHT22;35673;51.482;7.436;2023-03-20T05:01:46;8.70;99.90
49777;DHT22;35673;51.482;7.436;2023-03-20T05:04:12;8.60;99.90
49777;DHT22;35673;51.482;7.436;2023-03-20T05:06:38;8.60;99.90
49777;DHT22;35673;51.482;7.436;2023-03-20T05:09:03;8.60;99.90
49777;DHT22;35673;51.482;7.436;2023-03-20T05:11:29;8.60;99.90
49777;DHT22;35673;51.482;7.436;2023-03-20T05:13:54;8.60;99.90
49777;DHT22;35673;51.482;7.436;2023-03-20T05:16:20;8.60;99.90
49777;DHT22;35673;51.482;7.436;2023-03-20T05:18:45;8.60;99.90
49777;DHT22;35673;51.482;7.436;2023-03-20T05:21:11;8.70;99.90
49777;DHT22;35673;51.482;7.436;2023-03-20T05:23:36;8.70;99.90
49777;DHT22;35673;51.482;7.436;2023-03-20T05:26:02;8.70;99.90
49777;DHT22;35673;51.482;7.436;2023-03-20T05:28:27;8.60;99.90
49777;DHT22;35673;51.482;7.436;2023-03-20T05:30:53;8.60;99.90
49777;DHT22;35673;51.482;7.436;2023-03-20T05:33:19;8.60;99.90
49777;DHT22;35673;51.482;7.436;2023-03-20T05:35:44;8.50;99.90
49777;DHT22;35673;51.482;7.436;2023-03-20T05:38:10;8.50;99.90
49777;DHT22;35673;51.482;7.436;2023-03-20T05:40:36;8.50;99.90
49777;DHT22;35673;51.482;7.436;2023-03-20T05:43:01;8.40;99.90
49777;DHT22;35673;51.482;7.436;2023-03-20T05:45:27;8.40;99.90
49777;DHT22;35673;51.482;7.436;2023-03-20T05:47:52;8.40;99.90
49777;DHT22;35673;51.482;7.436;2023-03-20T05:50:18;8.30;99.90
49777;DHT22;35673;51.482;7.436;2023-03-20T05:52:46;8.40;99.90
49777;DHT22;35673;51.482;7.436;2023-03-20T05:55:12;8.30;99.90
49777;DHT22;35673;51.482;7.436;2023-03-20T05:57:38;8.30;99.90
49777;DHT22;35673;51.482;7.436;2023-03-20T06:00:04;8.30;99.90
49777;DHT22;35673;51.482;7.436;2023-03-20T06:02:29;8.30;99.90
49777;DHT22;35673;51.482;7.436;2023-03-20T06:04:55;8.30;99.90
49777;DHT22;35673;51.482;7.436;2023-03-20T06:07:20;8.30;99.90
49777;DHT22;35673;51.482;7.436;2023-03-20T06:09:46;8.20;99.90
49777;DHT22;35673;51.482;7.436;2023-03-20T06:12:11;8.20;99.90
49777;DHT22;35673;51.482;7.436;2023-03-20T06:14:37;8.30;99.90
49777;DHT22;35673;51.482;7.436;2023-03-20T06:17:02;8.30;99.90
49777;DHT22;35673;51.482;7.436;2023-03-20T06:19:28;8.30;99.90
49777;DHT22;35673;51.482;7.436;2023-03-20T06:21:53;8.20;99.90
49777;DHT22;35673;51.482;7.436;2023-03-20T06:24:19;8.20;99.90
49777;DHT22;35673;51.482;7.436;2023-03-20T06:26:44;8.30;99.90
49777;DHT22;35673;51.482;7.436;2023-03-20T06:29:10;8.20;99.90
49777;DHT22;35673;51.482;7.436;2023-03-20T06:31:35;8.20;99.90
49777;DHT22;35673;51.482;7.436;2023-03-20T06:34:01;8.20;99.90
49777;DHT22;35673;51.482;7.436;2023-03-20T06:36:26;8.20;99.90
49777;DHT22;35673;51.482;7.436;2023-03-20T06:38:52;8.30;99.90
49777;DHT22;35673;51.482;7.436;2023-03-20T06:41:20;8.20;99.90
49777;DHT22;35673;51.482;7.436;2023-03-20T06:43:45;8.20;99.90
49777;DHT22;35673;51.482;7.436;2023-03-20T06:46:11;8.20;99.90
49777;DHT22;35673;51.482;7.436;2023-03-20T06:48:36;8.20;99.90
49777;DHT22;35673;51.482;7.436;2023-03-20T06:51:02;8.20;99.90
49777;DHT22;35673;51.482;7.436;2023-03-20T06:53:28;8.20;99.90
49777;DHT22;35673;51.482;7.436;2023-03-20T06:55:53;8.20;99.90
49777;DHT22;35673;51.482;7.436;2023-03-20T06:58:19;8.20;99.90
49777;DHT22;35673;51.482;7.436;2023-03-20T07:00:45;8.30;99.90
49777;DHT22;35673;51.482;7.436;2023-03-20T07:03:11;8.30;99.90
49777;DHT22;35673;51.482;7.436;2023-03-20T07:05:36;8.40;99.90
49777;DHT22;35673;51.482;7.436;2023-03-20T07:08:03;8.40;99.90
49777;DHT22;35673;51.482;7.436;2023-03-20T07:10:28;8.40;99.90
49777;DHT22;35673;51.482;7.436;2023-03-20T07:12:54;8.40;99.90
49777;DHT22;35673;51.482;7.436;2023-03-20T07:15:20;8.40;99.90
49777;DHT22;35673;51.482;7.436;2023-03-20T07:17:45;8.40;99.90
49777;DHT22;35673;51.482;7.436;2023-03-20T07:20:11;8.40;99.90
49777;DHT22;35673;51.482;7.436;2023-03-20T07:22:37;8.40;99.90
49777;DHT22;35673;51.482;7.436;2023-03-20T07:25:03;8.50;99.90
49777;DHT22;35673;51.482;7.436;2023-03-20T07:27:29;8.50;99.90
49777;DHT22;35673;51.482;7.436;2023-03-20T07:29:55;8.60;99.90
49777;DHT22;35673;51.482;7.436;2023-03-20T07:32:20;8.60;99.90
49777;DHT22;35673;51.482;7.436;2023-03-20T07:34:46;8.60;99.90
49777;DHT22;35673;51.482;7.436;2023-03-20T07:37:12;8.70;99.90
49777;DHT22;35673;51.482;7.436;2023-03-20T07:39:38;8.80;99.90
49777;DHT22;35673;51.482;7.436;2023-03-20T07:42:03;8.90;99.90
49777;DHT22;35673;51.482;7.436;2023-03-20T07:44:29;8.80;99.70
49777;DHT22;35673;51.482;7.436;2023-03-20T07:46:54;8.80;99.70
49777;DHT22;35673;51.482;7.436;2023-03-20T07:49:20;8.80;99.60
49777;DHT22;35673;51.482;7.436;2023-03-20T07:51:46;8.90;99.30
49777;DHT22;35673;51.482;7.436;2023-03-20T07:54:12;9.00;98.30
49777;DHT22;35673;51.482;7.436;2023-03-20T07:56:39;9.00;97.60
49777;DHT22;35673;51.482;7.436;2023-03-20T07:59:04;9.10;96.70
49777;DHT22;35673;51.482;7.436;2023-03-20T08:01:30;9.10;96.40
49777;DHT22;35673;51.482;7.436;2023-03-20T08:03:55;9.10;96.20
49777;DHT22;35673;51.482;7.436;2023-03-20T08:06:21;9.30;96.50
49777;DHT22;35673;51.482;7.436;2023-03-20T08:08:46;9.40;94.30
49777;DHT22;35673;51.482;7.436;2023-03-20T08:11:14;9.60;93.80
49777;DHT22;35673;51.482;7.436;2023-03-20T08:13:39;9.70;93.00
49777;DHT22;35673;51.482;7.436;2023-03-20T08:16:05;9.80;92.50
49777;DHT22;35673;51.482;7.436;2023-03-20T08:18:30;9.90;92.10
49777;DHT22;35673;51.482;7.436;2023-03-20T08:20:56;9.80;92.20
49777;DHT22;35673;51.482;7.436;2023-03-20T08:23:21;9.80;92.00
49777;DHT22;35673;51.482;7.436;2023-03-20T08:25:47;9.70;91.60
49777;DHT22;35673;51.482;7.436;2023-03-20T08:28:13;9.70;91.50
49777;DHT22;35673;51.482;7.436;2023-03-20T08:30:38;9.70;91.70
49777;DHT22;35673;51.482;7.436;2023-03-20T08:33:04;9.70;91.20
49777;DHT22;35673;51.482;7.436;2023-03-20T08:35:29;9.60;91.20
49777;DHT22;35673;51.482;7.436;2023-03-20T08:37:55;9.70;91.10
49777;DHT22;35673;51.482;7.436;2023-03-20T08:40:20;9.80;90.90
49777;DHT22;35673;51.482;7.436;2023-03-20T08:42:46;9.90;90.30
49777;DHT22;35673;51.482;7.436;2023-03-20T08:45:11;9.90;90.70
49777;DHT22;35673;51.482;7.436;2023-03-20T08:47:37;10.00;90.40
49777;DHT22;35673;51.482;7.436;2023-03-20T08:50:03;9.90;89.90
49777;DHT22;35673;51.482;7.436;2023-03-20T08:52:29;10.00;89.50
49777;DHT22;35673;51.482;7.436;2023-03-20T08:54:54;10.00;89.10
49777;DHT22;35673;51.482;7.436;2023-03-20T08:57:20;9.90;89.50
49777;DHT22;35673;51.482;7.436;2023-03-20T08:59:45;10.10;89.80
49777;DHT22;35673;51.482;7.436;2023-03-20T09:02:11;10.10;90.00
49777;DHT22;35673;51.482;7.436;2023-03-20T09:04:36;10.00;87.40
49777;DHT22;35673;51.482;7.436;2023-03-20T09:07:02;10.00;88.50
49777;DHT22;35673;51.482;7.436;2023-03-20T09:09:28;10.00;87.80
49777;DHT22;35673;51.482;7.436;2023-03-20T09:11:54;10.20;87.10
49777;DHT22;35673;51.482;7.436;2023-03-20T09:14:21;10.20;87.20
49777;DHT22;35673;51.482;7.436;2023-03-20T09:16:47;10.30;86.70
49777;DHT22;35673;51.482;7.436;2023-03-20T09:19:12;10.30;84.60
49777;DHT22;35673;51.482;7.436;2023-03-20T09:21:38;10.20;85.30
49777;DHT22;35673;51.482;7.436;2023-03-20T09:24:03;10.00;84.00
49777;DHT22;35673;51.482;7.436;2023-03-20T09:26:29;10.00;84.60
49777;DHT22;35673;51.482;7.436;2023-03-20T09:28:54;9.90;83.70
49777;DHT22;35673;51.482;7.436;2023-03-20T09:31:20;9.80;84.20
49777;DHT22;35673;51.482;7.436;2023-03-20T09:33:47;9.90;83.80
49777;DHT22;35673;51.482;7.436;2023-03-20T09:36:12;9.90;83.00
49777;DHT22;35673;51.482;7.436;2023-03-20T09:38:40;9.90;83.60
49777;DHT22;35673;51.482;7.436;2023-03-20T09:41:06;9.80;83.00
49777;DHT22;35673;51.482;7.436;2023-03-20T09:46:17;9.80;82.50
49777;DHT22;35673;51.482;7.436;2023-03-20T09:51:19;9.90;82.10
49777;DHT22;35673;51.482;7.436;2023-03-20T09:53:47;10.00;82.80
49777;DHT22;35673;51.482;7.436;2023-03-20T09:56:15;10.00;81.20
49777;DHT22;35673;51.482;7.436;2023-03-20T09:58:42;9.90;81.70
49777;DHT22;35673;51.482;7.436;2023-03-20T10:01:10;10.00;82.10
49777;DHT22;35673;51.482;7.436;2023-03-20T10:03:40;10.10;82.20
49777;DHT22;35673;51.482;7.436;2023-03-20T10:06:11;10.20;82.30
49777;DHT22;35673;51.482;7.436;2023-03-20T10:08:37;10.30;81.90
49777;DHT22;35673;51.482;7.436;2023-03-20T10:11:48;10.30;82.00
49777;DHT22;35673;51.482;7.436;2023-03-20T10:19:27;10.30;81.20
49777;DHT22;35673;51.482;7.436;2023-03-20T10:21:51;10.20;80.50
49777;DHT22;35673;51.482;7.436;2023-03-20T10:24:54;10.20;79.90
49777;DHT22;35673;51.482;7.436;2023-03-20T10:27:22;10.20;79.70
49777;DHT22;35673;51.482;7.436;2023-03-20T10:29:53;10.10;79.60
49777;DHT22;35673;51.482;7.436;2023-03-20T10:37:31;10.20;79.70
49777;DHT22;35673;51.482;7.436;2023-03-20T10:40:16;10.30;79.80
49777;DHT22;35673;51.482;7.436;2023-03-20T10:42:46;10.30;79.50
49777;DHT22;35673;51.482;7.436;2023-03-20T10:47:56;10.50;78.90
49777;DHT22;35673;51.482;7.436;2023-03-20T10:50:27;10.70;78.20
49777;DHT22;35673;51.482;7.436;2023-03-20T10:52:54;10.60;77.70
49777;DHT22;35673;51.482;7.436;2023-03-20T10:55:24;10.60;78.30
49777;DHT22;35673;51.482;7.436;2023-03-20T10:58:13;10.50;78.10
49777;DHT22;35673;51.482;7.436;2023-03-20T11:00:40;10.50;78.30
49777;DHT22;35673;51.482;7.436;2023-03-20T11:03:05;10.60;78.30
49777;DHT22;35673;51.482;7.436;2023-03-20T11:05:35;10.60;78.40
49777;DHT22;35673;51.482;7.436;2023-03-20T11:08:05;10.60;78.60
49777;DHT22;35673;51.482;7.436;2023-03-20T11:10:32;10.70;78.70
49777;DHT22;35673;51.482;7.436;2023-03-20T11:12:58;10.70;78.00
49777;DHT22;35673;51.482;7.436;2023-03-20T11:15:31;10.70;77.80
49777;DHT22;35673;51.482;7.436;2023-03-20T11:17:58;10.70;77.00
49777;DHT22;35673;51.482;7.436;2023-03-20T11:20:25;10.60;77.80
49777;DHT22;35673;51.482;7.436;2023-03-20T11:22:56;10.50;77.30
49777;DHT22;35673;51.482;7.436;2023-03-20T11:25:33;10.60;77.50
49777;DHT22;35673;51.482;7.436;2023-03-20T11:30:43;10.70;76.80
49777;DHT22;35673;51.482;7.436;2023-03-20T11:33:08;10.70;76.00
49777;DHT22;35673;51.482;7.436;2023-03-20T11:35:34;10.70;76.50
49777;DHT22;35673;51.482;7.436;2023-03-20T11:38:13;10.70;75.80
49777;DHT22;35673;51.482;7.436;2023-03-20T11:40:39;10.80;76.50
49777;DHT22;35673;51.482;7.436;2023-03-20T11:43:09;10.80;75.70
49777;DHT22;35673;51.482;7.436;2023-03-20T11:45:35;10.80;75.70
49777;DHT22;35673;51.482;7.436;2023-03-20T11:48:01;10.80;75.70
49777;DHT22;35673;51.482;7.436;2023-03-20T11:52:56;10.80;74.30
49777;DHT22;35673;51.482;7.436;2023-03-20T11:55:31;10.90;74.60
49777;DHT22;35673;51.482;7.436;2023-03-20T11:57:57;11.20;74.20
49777;DHT22;35673;51.482;7.436;2023-03-20T12:00:24;11.30;73.50
49777;DHT22;35673;51.482;7.436;2023-03-20T12:02:50;11.40;72.80
49777;DHT22;35673;51.482;7.436;2023-03-20T12:05:26;11.60;72.00
49777;DHT22;35673;51.482;7.436;2023-03-20T12:07:53;11.50;72.50
49777;DHT22;35673;51.482;7.436;2023-03-20T12:10:22;11.50;73.30
49777;DHT22;35673;51.482;7.436;2023-03-20T12:12:50;11.30;72.90
49777;DHT22;35673;51.482;7.436;2023-03-20T12:15:25;11.10;72.90
49777;DHT22;35673;51.482;7.436;2023-03-20T12:17:53;11.00;73.10
49777;DHT22;35673;51.482;7.436;2023-03-20T12:25:24;10.70;72.40
49777;DHT22;35673;51.482;7.436;2023-03-20T12:28:01;10.70;73.20
49777;DHT22;35673;51.482;7.436;2023-03-20T12:30:31;10.60;73.40
49777;DHT22;35673;51.482;7.436;2023-03-20T12:33:11;10.60;74.10
49777;DHT22;35673;51.482;7.436;2023-03-20T12:35:40;10.50;74.50
49777;DHT22;35673;51.482;7.436;2023-03-20T12:38:28;10.60;75.80
49777;DHT22;35673;51.482;7.436;2023-03-20T12:40:58;10.80;76.00
49777;DHT22;35673;51.482;7.436;2023-03-20T12:43:25;10.90;75.20
49777;DHT22;35673;51.482;7.436;2023-03-20T12:45:53;10.80;75.10
49777;DHT22;35673;51.482;7.436;2023-03-20T12:50:48;10.70;74.00
49777;DHT22;35673;51.482;7.436;2023-03-20T12:53:24;10.50;74.40
49777;DHT22;35673;51.482;7.436;2023-03-20T12:58:30;10.40;75.40
49777;DHT22;35673;51.482;7.436;2023-03-20T13:01:05;10.40;75.00
49777;DHT22;35673;51.482;7.436;2023-03-20T13:08:59;10.30;76.10
49777;DHT22;35673;51.482;7.436;2023-03-20T13:13:54;10.40;76.40
49777;DHT22;35673;51.482;7.436;2023-03-20T13:16:44;10.40;76.50
49777;DHT22;35673;51.482;7.436;2023-03-20T13:24:48;10.30;77.10
49777;DHT22;35673;51.482;7.436;2023-03-20T13:27:38;10.20;77.80
49777;DHT22;35673;51.482;7.436;2023-03-20T13:30:02;10.20;77.70
49777;DHT22;35673;51.482;7.436;2023-03-20T13:32:31;10.20;77.90
49777;DHT22;35673;51.482;7.436;2023-03-20T13:45:32;10.00;78.50
49777;DHT22;35673;51.482;7.436;2023-03-20T13:47:59;10.10;78.70
49777;DHT22;35673;51.482;7.436;2023-03-20T13:50:47;10.00;78.20
49777;DHT22;35673;51.482;7.436;2023-03-20T13:53:16;9.90;78.70
49777;DHT22;35673;51.482;7.436;2023-03-20T13:55:49;9.70;79.60
49777;DHT22;35673;51.482;7.436;2023-03-20T13:58:21;9.80;79.30
49777;DHT22;35673;51.482;7.436;2023-03-20T14:03:26;9.70;79.50
49777;DHT22;35673;51.482;7.436;2023-03-20T14:05:53;9.70;80.00
49777;DHT22;35673;51.482;7.436;2023-03-20T14:10:55;9.70;79.80
49777;DHT22;35673;51.482;7.436;2023-03-20T14:13:28;9.60;80.40
49777;DHT22;35673;51.482;7.436;2023-03-20T14:15:55;9.70;80.60
49777;DHT22;35673;51.482;7.436;2023-03-20T14:18:22;9.70;80.00
49777;DHT22;35673;51.482;7.436;2023-03-20T14:20:53;9.70;80.40
49777;DHT22;35673;51.482;7.436;2023-03-20T14:23:19;9.80;80.40
49777;DHT22;35673;51.482;7.436;2023-03-20T14:25:47;10.00;80.80
49777;DHT22;35673;51.482;7.436;2023-03-20T14:35:42;10.50;79.00
49777;DHT22;35673;51.482;7.436;2023-03-20T14:45:50;10.40;79.50
49777;DHT22;35673;51.482;7.436;2023-03-20T14:48:30;10.40;79.30
49777;DHT22;35673;51.482;7.436;2023-03-20T14:53:42;10.60;78.70
49777;DHT22;35673;51.482;7.436;2023-03-20T14:56:09;10.40;79.10
49777;DHT22;35673;51.482;7.436;2023-03-20T14:58:48;10.40;79.50
49777;DHT22;35673;51.482;7.436;2023-03-20T15:01:16;10.40;79.50
49777;DHT22;35673;51.482;7.436;2023-03-20T15:03:45;10.50;79.80
49777;DHT22;35673;51.482;7.436;2023-03-20T15:06:12;10.80;79.30
49777;DHT22;35673;51.482;7.436;2023-03-20T15:08:43;10.90;79.30
49777;DHT22;35673;51.482;7.436;2023-03-20T15:11:10;10.90;79.00
49777;DHT22;35673;51.482;7.436;2023-03-20T15:13:37;10.70;79.30
49777;DHT22;35673;51.482;7.436;2023-03-20T15:16:08;10.70;79.70
49777;DHT22;35673;51.482;7.436;2023-03-20T15:18:36;10.50;79.70
49777;DHT22;35673;51.482;7.436;2023-03-20T15:21:01;10.40;79.80
49777;DHT22;35673;51.482;7.436;2023-03-20T15:23:27;10.20;80.80
49777;DHT22;35673;51.482;7.436;2023-03-20T15:25:53;10.10;81.30
49777;DHT22;35673;51.482;7.436;2023-03-20T15:28:19;10.20;82.00
49777;DHT22;35673;51.482;7.436;2023-03-20T15:30:47;10.30;81.80
49777;DHT22;35673;51.482;7.436;2023-03-20T15:33:18;10.30;81.50
49777;DHT22;35673;51.482;7.436;2023-03-20T15:35:44;10.20;81.20
49777;DHT22;35673;51.482;7.436;2023-03-20T15:38:10;10.10;81.30
49777;DHT22;35673;51.482;7.436;2023-03-20T15:40:38;10.10;81.40
49777;DHT22;35673;51.482;7.436;2023-03-20T15:43:09;10.10;81.50
49777;DHT22;35673;51.482;7.436;2023-03-20T15:45:36;10.10;82.10
49777;DHT22;35673;51.482;7.436;2023-03-20T15:48:04;10.00;81.40
49777;DHT22;35673;51.482;7.436;2023-03-20T15:50:31;9.90;81.70
49777;DHT22;35673;51.482;7.436;2023-03-20T15:52:57;9.90;82.00
49777;DHT22;35673;51.482;7.436;2023-03-20T15:55:23;9.90;82.50
49777;DHT22;35673;51.482;7.436;2023-03-20T15:57:49;9.90;83.50
49777;DHT22;35673;51.482;7.436;2023-03-20T16:00:22;10.00;83.60
49777;DHT22;35673;51.482;7.436;2023-03-20T16:02:49;10.10;83.20
49777;DHT22;35673;51.482;7.436;2023-03-20T16:05:15;10.00;83.10
49777;DHT22;35673;51.482;7.436;2023-03-20T16:07:42;10.00;84.00
49777;DHT22;35673;51.482;7.436;2023-03-20T16:12:46;10.00;85.30
49777;DHT22;35673;51.482;7.436;2023-03-20T16:15:14;10.00;83.80
49777;DHT22;35673;51.482;7.436;2023-03-20T16:17:40;9.90;86.30
49777;DHT22;35673;51.482;7.436;2023-03-20T16:20:07;9.90;85.50
49777;DHT22;35673;51.482;7.436;2023-03-20T16:22:34;10.00;85.80
49777;DHT22;35673;51.482;7.436;2023-03-20T16:25:00;10.00;87.00
49777;DHT22;35673;51.482;7.436;2023-03-20T16:27:27;10.20;87.30
49777;DHT22;35673;51.482;7.436;2023-03-20T16:29:53;10.10;85.90
49777;DHT22;35673;51.482;7.436;2023-03-20T16:34:51;10.10;86.30
49777;DHT22;35673;51.482;7.436;2023-03-20T16:37:28;10.10;86.60
49777;DHT22;35673;51.482;7.436;2023-03-20T16:40:28;10.20;87.00
49777;DHT22;35673;51.482;7.436;2023-03-20T16:42:46;10.20;86.30
49777;DHT22;35673;51.482;7.436;2023-03-20T16:45:18;10.20;86.40
49777;DHT22;35673;51.482;7.436;2023-03-20T16:47:45;10.20;86.10
49777;DHT22;35673;51.482;7.436;2023-03-20T16:50:16;10.20;87.40
49777;DHT22;35673;51.482;7.436;2023-03-20T16:52:47;10.10;86.10
49777;DHT22;35673;51.482;7.436;2023-03-20T16:55:14;10.10;87.30
49777;DHT22;35673;51.482;7.436;2023-03-20T16:57:41;10.00;88.30
49777;DHT22;35673;51.482;7.436;2023-03-20T17:00:17;10.00;87.90
49777;DHT22;35673;51.482;7.436;2023-03-20T17:02:45;10.00;87.40
49777;DHT22;35673;51.482;7.436;2023-03-20T17:05:13;9.90;87.30
49777;DHT22;35673;51.482;7.436;2023-03-20T17:07:40;9.90;89.20
49777;DHT22;35673;51.482;7.436;2023-03-20T17:12:40;9.90;88.80
49777;DHT22;35673;51.482;7.436;2023-03-20T17:15:06;9.90;89.60
49777;DHT22;35673;51.482;7.436;2023-03-20T17:17:32;9.90;88.90
49777;DHT22;35673;51.482;7.436;2023-03-20T17:19:58;9.80;89.80
49777;DHT22;35673;51.482;7.436;2023-03-20T17:22:25;9.90;90.30
49777;DHT22;35673;51.482;7.436;2023-03-20T17:24:53;9.80;89.10
49777;DHT22;35673;51.482;7.436;2023-03-20T17:27:18;9.70;90.30
49777;DHT22;35673;51.482;7.436;2023-03-20T17:29:45;9.80;91.30
49777;DHT22;35673;51.482;7.436;2023-03-20T17:32:11;9.80;89.60
49777;DHT22;35673;51.482;7.436;2023-03-20T17:34:37;9.70;90.40
49777;DHT22;35673;51.482;7.436;2023-03-20T17:37:03;9.70;91.40
49777;DHT22;35673;51.482;7.436;2023-03-20T17:39:28;9.70;90.60
49777;DHT22;35673;51.482;7.436;2023-03-20T17:41:54;9.70;90.90